createdAt,value
2023-01-18T00:02:36.259Z,97155.95
2023-01-18T00:06:34.307Z,97145.98
2023-01-18T00:10:32.404Z,97138.11
2023-01-18T00:14:31.252Z,97133.91
2023-01-18T00:18:29.271Z,97147.43
2023-01-18T00:22:27.358Z,97140.89
2023-01-18T00:26:26.185Z,97132.38
2023-01-18T00:30:25.227Z,97121.67
2023-01-18T00:34:23.156Z,97111.45
2023-01-18T00:38:21.204Z,97111.69
2023-01-18T00:42:36.182Z,97108.18
2023-01-18T00:46:43.189Z,97108.67
2023-01-18T00:50:41.125Z,97107.33
2023-01-18T00:54:39.435Z,97103.04
2023-01-18T00:58:38.235Z,97105.77
2023-01-18T01:02:37.298Z,97099.05
2023-01-18T01:06:52.119Z,97086.54
2023-01-18T01:10:50.198Z,97066.89
2023-01-18T01:15:08.661Z,97053.79
2023-01-18T01:19:23.120Z,97040.00
2023-01-18T01:23:55.095Z,97029.73
2023-01-18T01:27:53.173Z,97032.47
2023-01-18T01:31:51.155Z,97029.91
2023-01-18T01:35:49.135Z,97025.48
2023-01-18T01:39:47.060Z,97028.16
2023-01-18T01:44:05.101Z,97047.31
2023-01-18T01:48:03.143Z,97040.92
2023-01-18T01:52:07.115Z,97024.73
2023-01-18T01:56:05.097Z,97017.09
2023-01-18T02:00:13.156Z,96998.46
2023-01-18T02:04:15.039Z,96978.52
2023-01-18T02:08:18.104Z,96968.73
2023-01-18T02:12:16.100Z,96949.27
2023-01-18T02:16:32.123Z,96938.73
2023-01-18T02:20:58.064Z,96926.21
2023-01-18T02:24:58.987Z,96906.83
2023-01-18T02:29:07.025Z,96891.16
2023-01-18T02:33:16.137Z,96887.30
2023-01-18T02:37:45.966Z,96882.99
2023-01-18T02:42:19.026Z,96872.00
2023-01-18T02:46:40.008Z,96864.52
2023-01-18T02:50:42.073Z,96858.45
2023-01-18T02:54:39.967Z,96844.48
2023-01-18T02:58:54.093Z,96854.89
2023-01-18T03:02:55.403Z,96843.92
2023-01-18T03:06:57.982Z,96836.42
2023-01-18T03:11:13.977Z,96828.49
2023-01-18T03:15:26.041Z,96824.45
2023-01-18T03:19:54.025Z,96813.77
2023-01-18T03:23:56.952Z,96791.44
2023-01-18T03:28:14.970Z,96786.73
2023-01-18T03:32:44.963Z,96780.17
2023-01-18T03:36:52.492Z,96764.21
2023-01-18T03:40:52.014Z,96753.62
2023-01-18T03:44:59.119Z,96754.59
2023-01-18T03:48:56.983Z,96747.13
2023-01-18T03:53:04.895Z,96755.79
2023-01-18T03:57:10.944Z,96743.69
2023-01-18T04:01:10.996Z,96736.69
2023-01-18T04:05:09.889Z,96720.09
2023-01-18T04:09:07.860Z,96714.55
2023-01-18T04:13:06.975Z,96696.31
2023-01-18T04:17:04.953Z,96711.92
2023-01-18T04:21:02.933Z,96711.73
2023-01-18T04:25:01.920Z,96696.87
2023-01-18T04:28:59.916Z,96682.09
2023-01-18T04:32:58.463Z,96675.06
2023-01-18T04:36:56.901Z,96677.39
2023-01-18T04:40:54.875Z,96679.77
2023-01-18T04:44:52.831Z,96680.41
2023-01-18T04:48:50.937Z,96675.27
2023-01-18T04:52:48.911Z,96680.70
2023-01-18T04:56:47.913Z,96674.47
2023-01-18T05:00:46.939Z,96668.92
2023-01-18T05:04:45.923Z,96658.70
2023-01-18T05:08:47.895Z,96650.80
2023-01-18T05:12:38.911Z,96645.38
2023-01-18T05:16:37.914Z,96640.85
2023-01-18T05:20:35.794Z,96641.19
2023-01-18T05:24:33.886Z,96630.81
2023-01-18T05:28:31.813Z,96619.41
2023-01-18T05:32:29.780Z,96618.08
2023-01-18T05:36:29.858Z,96607.20
2023-01-18T05:40:27.752Z,96602.48
2023-01-18T05:44:25.743Z,96597.27
2023-01-18T05:48:24.767Z,96587.10
2023-01-18T05:52:23.818Z,96578.58
2023-01-18T05:56:22.756Z,96575.20
2023-01-18T06:00:21.717Z,96579.03
2023-01-18T06:04:19.857Z,96579.69
2023-01-18T06:08:17.778Z,96587.63
2023-01-18T06:12:15.757Z,96578.95
2023-01-18T06:16:14.802Z,96578.55
2023-01-18T06:20:12.777Z,96569.17
2023-01-18T06:24:10.651Z,96565.41
2023-01-18T06:28:09.830Z,96559.64
2023-01-18T06:32:07.666Z,96568.91
2023-01-18T06:36:05.788Z,96565.41
2023-01-18T06:40:03.765Z,96564.34
2023-01-18T06:44:01.676Z,96554.59
2023-01-18T06:47:52.855Z,96559.16
2023-01-18T06:51:50.739Z,96564.11
2023-01-18T06:55:48.710Z,96556.48
2023-01-18T06:59:39.786Z,96564.11
2023-01-18T07:03:04.464Z,96565.70
2023-01-18T07:06:28.512Z,96564.27
2023-01-18T07:09:52.525Z,96567.92
2023-01-18T07:13:17.086Z,96566.23
2023-01-18T07:16:40.919Z,96572.42
2023-01-18T07:20:05.350Z,96577.05
2023-01-18T07:23:30.079Z,96585.23
2023-01-18T07:26:53.911Z,96587.15
2023-01-18T07:30:18.369Z,96587.44
2023-01-18T07:33:42.217Z,96585.86
2023-01-18T07:37:06.544Z,96589.75
2023-01-18T07:40:30.359Z,96594.29
2023-01-18T07:43:54.260Z,96596.59
2023-01-18T07:47:18.352Z,96593.88
2023-01-18T07:50:42.319Z,96593.48
2023-01-18T07:54:06.588Z,96592.25
2023-01-18T07:57:30.589Z,96594.93
2023-01-18T08:00:54.789Z,96596.63
2023-01-18T08:04:18.833Z,96601.98
2023-01-18T08:07:43.316Z,96598.45
2023-01-18T08:11:08.975Z,96602.05
2023-01-18T08:14:33.411Z,96602.00
2023-01-18T08:17:58.535Z,96596.80
2023-01-18T08:21:22.380Z,96598.27
2023-01-18T08:24:46.287Z,96611.05
2023-01-18T08:28:10.903Z,96610.83
2023-01-18T08:31:34.792Z,96610.67
2023-01-18T08:34:58.702Z,96608.46
2023-01-18T08:38:23.700Z,96609.84
2023-01-18T08:41:49.122Z,96608.70
2023-01-18T08:45:13.116Z,96612.56
2023-01-18T08:48:37.282Z,96618.80
2023-01-18T08:52:01.267Z,96619.11
2023-01-18T08:55:25.206Z,96630.06
2023-01-18T08:58:49.158Z,96632.77
2023-01-18T09:02:13.285Z,96631.30
2023-01-18T09:05:37.710Z,96632.08
2023-01-18T09:09:02.384Z,96627.96
2023-01-18T09:12:26.693Z,96628.48
2023-01-18T09:16:00.127Z,96628.61
2023-01-18T09:19:24.082Z,96635.39
2023-01-18T09:22:48.900Z,96644.65
2023-01-18T09:26:17.110Z,96653.92
2023-01-18T09:29:41.807Z,96663.70
2023-01-18T09:33:05.741Z,96670.29
2023-01-18T09:36:30.888Z,96678.61
2023-01-18T09:39:54.946Z,96682.20
2023-01-18T09:43:30.295Z,96683.99
2023-01-18T09:47:13.032Z,96676.60
2023-01-18T09:50:43.966Z,96660.89
2023-01-18T09:54:24.107Z,96651.38
2023-01-18T09:58:33.347Z,96634.86
2023-01-18T10:01:57.684Z,96626.06
2023-01-18T10:05:25.544Z,96618.73
2023-01-18T10:09:15.668Z,96616.43
2023-01-18T10:12:48.052Z,96622.60
2023-01-18T10:16:15.454Z,96617.84
2023-01-18T10:19:42.269Z,96615.71
2023-01-18T10:23:19.017Z,96589.30
2023-01-18T10:26:42.835Z,96564.41
2023-01-18T10:30:32.949Z,96562.30
2023-01-18T10:34:00.167Z,96561.36
2023-01-18T10:37:23.884Z,96564.48
2023-01-18T10:40:57.740Z,96560.51
2023-01-18T10:44:21.746Z,96550.13
2023-01-18T10:47:45.936Z,96548.14
2023-01-18T10:51:09.835Z,96542.24
2023-01-18T10:54:33.736Z,96537.58
2023-01-18T10:57:58.047Z,96540.91
2023-01-18T11:01:26.032Z,96538.66
2023-01-18T11:04:57.279Z,96530.71
2023-01-18T11:08:24.124Z,96527.84
2023-01-18T11:12:05.403Z,96526.88
2023-01-18T11:15:31.721Z,96530.52
2023-01-18T11:19:03.331Z,96533.55
2023-01-18T11:22:32.921Z,96533.71
2023-01-18T11:26:00.800Z,96525.38
2023-01-18T11:29:28.745Z,96526.25
2023-01-18T11:32:53.465Z,96533.59
2023-01-18T11:36:19.342Z,96538.63
2023-01-18T11:39:45.470Z,96547.79
2023-01-18T11:43:22.581Z,96558.83
2023-01-18T11:46:52.091Z,96554.50
2023-01-18T11:50:25.043Z,96546.52
2023-01-18T11:54:13.341Z,96544.98
2023-01-18T11:57:37.258Z,96546.50
2023-01-18T12:01:10.841Z,96536.44
2023-01-18T12:04:40.343Z,96539.50
2023-01-18T12:08:25.317Z,96541.85
2023-01-18T12:12:18.433Z,96544.34
2023-01-18T12:16:01.216Z,96546.19
2023-01-18T12:20:22.997Z,96540.11
2023-01-18T12:23:58.961Z,96554.60
2023-01-18T12:27:41.628Z,96560.38
2023-01-18T12:31:43.378Z,96556.46
2023-01-18T12:35:26.319Z,96556.73
2023-01-18T12:38:56.459Z,96559.17
2023-01-18T12:43:00.516Z,96566.58
2023-01-18T12:46:47.815Z,96563.74
2023-01-18T12:50:30.097Z,96576.99
2023-01-18T12:54:13.552Z,96585.66
2023-01-18T12:57:37.883Z,96598.90
2023-01-18T13:01:05.973Z,96615.07
2023-01-18T13:04:44.737Z,96616.94
2023-01-18T13:08:16.250Z,96632.02
2023-01-18T13:11:44.326Z,96636.83
2023-01-18T13:15:43.929Z,96642.61
2023-01-18T13:19:12.557Z,96654.14
2023-01-18T13:22:48.945Z,96663.08
2023-01-18T13:26:18.543Z,96676.92
2023-01-18T13:29:46.357Z,96687.52
2023-01-18T13:33:14.909Z,96686.84
2023-01-18T13:36:47.351Z,96692.20
2023-01-18T13:40:28.560Z,96688.77
2023-01-18T13:43:56.379Z,96696.14
2023-01-18T13:47:39.686Z,96703.02
2023-01-18T13:51:03.557Z,96710.45
2023-01-18T13:54:28.614Z,96725.02
2023-01-18T13:57:56.802Z,96741.59
2023-01-18T14:01:25.214Z,96750.10
2023-01-18T14:05:00.716Z,96761.60
2023-01-18T14:08:32.610Z,96776.40
2023-01-18T14:12:01.939Z,96777.98
2023-01-18T14:15:44.740Z,96779.11
2023-01-18T14:19:23.606Z,96781.14
2023-01-18T14:23:21.703Z,96798.83
2023-01-18T14:26:48.040Z,96815.83
2023-01-18T14:30:38.242Z,96825.23
2023-01-18T14:34:45.151Z,96844.63
2023-01-18T14:38:47.049Z,96849.90
2023-01-18T14:42:25.209Z,96878.48
2023-01-18T14:46:16.125Z,96887.55
2023-01-18T14:49:42.414Z,96893.17
2023-01-18T14:53:08.955Z,96904.34
2023-01-18T14:56:34.965Z,96917.83
2023-01-18T15:00:30.543Z,96931.82
2023-01-18T15:04:00.278Z,96939.52
2023-01-18T15:07:33.997Z,96944.35
2023-01-18T15:10:59.533Z,96965.18
2023-01-18T15:14:33.545Z,96981.29
2023-01-18T15:18:10.652Z,96994.16
2023-01-18T15:21:37.684Z,97008.70
2023-01-18T15:25:02.180Z,97023.90
2023-01-18T15:28:34.029Z,97026.67
2023-01-18T15:32:21.708Z,97050.56
2023-01-18T15:35:49.375Z,97058.84
2023-01-18T15:39:14.469Z,97064.90
2023-01-18T15:42:49.603Z,97070.80
2023-01-18T15:46:19.221Z,97077.29
2023-01-18T15:49:48.909Z,97085.67
2023-01-18T15:53:26.032Z,97097.36
2023-01-18T15:56:50.138Z,97109.48
2023-01-18T16:00:46.876Z,97121.20
2023-01-18T16:04:11.981Z,97126.19
2023-01-18T16:07:39.394Z,97127.69
2023-01-18T16:11:06.037Z,97130.79
2023-01-18T16:14:31.064Z,97132.80
2023-01-18T16:18:04.384Z,97139.42
2023-01-18T16:25:10.939Z,97162.27
2023-01-18T16:28:36.976Z,97174.69
2023-01-18T16:32:29.116Z,97178.73
2023-01-18T16:35:53.164Z,97189.77
2023-01-18T16:39:17.038Z,97200.67
2023-01-18T16:42:55.681Z,97209.89
2023-01-18T16:46:20.428Z,97217.96
2023-01-18T16:49:44.583Z,97229.70
2023-01-18T16:53:09.612Z,97241.45
2023-01-18T16:56:35.430Z,97251.92
2023-01-18T16:59:59.335Z,97259.73
2023-01-18T17:03:23.385Z,97256.52
2023-01-18T17:06:50.715Z,97266.40
2023-01-18T17:10:20.062Z,97279.04
2023-01-18T17:13:47.764Z,97297.10
2023-01-18T17:17:12.027Z,97307.05
2023-01-18T17:20:36.311Z,97306.73
2023-01-18T17:24:01.925Z,97310.15
2023-01-18T17:27:25.826Z,97314.36
2023-01-18T17:30:56.036Z,97317.37
2023-01-18T17:34:28.013Z,97323.25
2023-01-18T17:38:00.980Z,97333.39
2023-01-18T17:41:40.882Z,97345.64
2023-01-18T17:45:06.638Z,97366.30
2023-01-18T17:48:30.655Z,97382.67
2023-01-18T17:51:54.634Z,97390.27
2023-01-18T17:55:24.500Z,97401.31
2023-01-18T17:58:54.995Z,97410.07
2023-01-18T18:02:19.049Z,97414.25
2023-01-18T18:05:43.770Z,97429.33
2023-01-18T18:09:08.710Z,97437.48
2023-01-18T18:12:35.869Z,97444.51
2023-01-18T18:15:59.844Z,97459.30
2023-01-18T18:19:26.522Z,97476.05
2023-01-18T18:22:50.451Z,97479.30
2023-01-18T18:26:18.726Z,97497.90
2023-01-18T18:45:32.578Z,97518.86
2023-01-18T18:48:56.729Z,97523.95
2023-01-18T18:52:20.579Z,97534.19
2023-01-18T18:55:44.670Z,97549.88
2023-01-18T18:59:08.770Z,97549.23
2023-01-18T19:02:32.802Z,97548.25
2023-01-18T19:05:56.749Z,97559.02
2023-01-18T19:09:20.991Z,97565.48
2023-01-18T19:12:45.139Z,97571.60
2023-01-18T19:16:09.467Z,97575.70
2023-01-18T19:19:33.800Z,97583.88
2023-01-18T19:22:58.373Z,97587.55
2023-01-18T19:26:22.941Z,97592.74
2023-01-18T19:29:47.105Z,97604.60
2023-01-18T19:33:12.826Z,97612.89
2023-01-18T19:36:36.748Z,97619.05
2023-01-18T19:40:01.098Z,97631.38
2023-01-18T19:43:25.692Z,97638.58
2023-01-18T19:46:49.711Z,97644.09
2023-01-18T19:50:13.649Z,97650.63
2023-01-18T19:53:37.527Z,97653.45
2023-01-18T19:57:02.747Z,97656.36
2023-01-18T20:00:29.027Z,97657.39
2023-01-18T20:03:53.260Z,97663.84
2023-01-18T20:07:17.448Z,97668.68
2023-01-18T20:10:42.358Z,97680.00
2023-01-18T20:14:07.831Z,97699.68
2023-01-18T20:17:31.689Z,97724.28
2023-01-18T20:20:57.018Z,97738.43
2023-01-18T20:24:21.065Z,97741.55
2023-01-18T20:27:45.501Z,97732.21
2023-01-18T20:31:10.347Z,97745.59
2023-01-18T20:34:36.279Z,97748.63
2023-01-18T20:38:00.146Z,97752.82
2023-01-18T20:41:24.339Z,97755.48
2023-01-18T20:44:53.854Z,97758.89
2023-01-18T20:48:18.496Z,97771.14
2023-01-18T20:51:44.116Z,97787.90
2023-01-18T20:55:13.830Z,97787.18
2023-01-18T20:58:38.870Z,97787.21
2023-01-18T21:02:04.124Z,97809.67
2023-01-18T21:05:31.066Z,97811.33
2023-01-18T21:08:59.347Z,97822.76
2023-01-18T21:12:23.522Z,97822.06
2023-01-18T21:15:54.609Z,97829.05
2023-01-18T21:19:18.488Z,97837.78
2023-01-18T21:22:42.732Z,97838.80
2023-01-18T21:26:11.637Z,97827.52
2023-01-18T21:29:35.690Z,97824.71
2023-01-18T21:32:59.452Z,97830.98
2023-01-18T21:36:23.741Z,97841.19
2023-01-18T21:39:47.623Z,97839.83
2023-01-18T21:43:38.690Z,97841.39
2023-01-18T21:47:02.499Z,97845.52
2023-01-18T21:50:44.648Z,97842.41
2023-01-18T21:54:17.447Z,97844.17
2023-01-18T21:57:41.315Z,97860.45
2023-01-18T22:01:17.596Z,97871.34
2023-01-18T22:05:00.279Z,97885.90
2023-01-18T22:08:24.201Z,97887.18
2023-01-18T22:11:48.685Z,97891.89
2023-01-18T22:15:12.774Z,97890.14
2023-01-18T22:18:37.330Z,97891.25
2023-01-18T22:22:02.094Z,97908.59
2023-01-18T22:25:26.017Z,97918.04
2023-01-18T22:28:50.325Z,97928.67
2023-01-18T22:32:14.222Z,97927.97
2023-01-18T22:35:38.100Z,97926.75
2023-01-18T22:39:02.103Z,97940.08
2023-01-18T22:42:26.471Z,97948.65
2023-01-18T22:45:57.178Z,97952.90
2023-01-18T22:49:21.125Z,97961.61
2023-01-18T22:52:45.175Z,97968.39
2023-01-18T22:56:12.270Z,97977.15
2023-01-18T22:59:36.218Z,97974.33
2023-01-18T23:03:00.202Z,97972.63
2023-01-18T23:06:24.375Z,97968.98
2023-01-18T23:09:50.624Z,97977.98
2023-01-18T23:13:15.203Z,97987.64
2023-01-18T23:16:57.012Z,97998.59
2023-01-18T23:20:24.332Z,98002.46
2023-01-18T23:23:49.083Z,98001.05
2023-01-18T23:27:13.305Z,98001.29
2023-01-18T23:30:37.179Z,97998.86
2023-01-18T23:34:01.153Z,97996.34
2023-01-18T23:37:25.936Z,97997.27
2023-01-18T23:41:07.746Z,97995.63
2023-01-18T23:44:49.040Z,98001.23
2023-01-18T23:48:37.197Z,98005.02
2023-01-18T23:52:19.009Z,98006.29
2023-01-18T23:55:43.167Z,98002.64
2023-01-18T23:59:08.872Z,98006.02
